sensor_id;sensor_type;location;lat;lon;timestamp;P1;durP1;ratioP1;P2;durP2;ratioP2
15712;SDS011;7957;51.608;6.916;2022-11-03T00:01:42;7.10;;;2.93;;
15712;SDS011;7957;51.608;6.916;2022-11-03T00:04:10;7.07;;;2.93;;
15712;SDS011;7957;51.608;6.916;2022-11-03T00:06:38;7.03;;;2.70;;
15712;SDS011;7957;51.608;6.916;2022-11-03T00:09:08;9.67;;;3.40;;
15712;SDS011;7957;51.608;6.916;2022-11-03T00:11:37;7.57;;;2.87;;
15712;SDS011;7957;51.608;6.916;2022-11-03T00:14:05;9.60;;;3.07;;
15712;SDS011;7957;51.608;6.916;2022-11-03T00:16:35;7.23;;;3.03;;
15712;SDS011;7957;51.608;6.916;2022-11-03T00:19:02;6.30;;;2.63;;
15712;SDS011;7957;51.608;6.916;2022-11-03T00:21:29;7.03;;;2.60;;
15712;SDS011;7957;51.608;6.916;2022-11-03T00:23:56;6.53;;;2.60;;
15712;SDS011;7957;51.608;6.916;2022-11-03T00:26:28;7.63;;;2.83;;
15712;SDS011;7957;51.608;6.916;2022-11-03T00:28:56;6.23;;;2.53;;
15712;SDS011;7957;51.608;6.916;2022-11-03T00:31:28;6.87;;;2.97;;
15712;SDS011;7957;51.608;6.916;2022-11-03T00:33:56;7.00;;;2.80;;
15712;SDS011;7957;51.608;6.916;2022-11-03T00:36:24;7.80;;;2.97;;
15712;SDS011;7957;51.608;6.916;2022-11-03T00:38:53;8.67;;;2.80;;
15712;SDS011;7957;51.608;6.916;2022-11-03T00:41:21;7.63;;;2.90;;
15712;SDS011;7957;51.608;6.916;2022-11-03T00:43:51;9.93;;;3.00;;
15712;SDS011;7957;51.608;6.916;2022-11-03T00:46:18;7.27;;;3.03;;
15712;SDS011;7957;51.608;6.916;2022-11-03T00:48:46;9.53;;;3.47;;
15712;SDS011;7957;51.608;6.916;2022-11-03T00:51:15;8.37;;;3.23;;
15712;SDS011;7957;51.608;6.916;2022-11-03T00:53:45;7.77;;;2.90;;
15712;SDS011;7957;51.608;6.916;2022-11-03T00:56:13;7.60;;;3.07;;
15712;SDS011;7957;51.608;6.916;2022-11-03T00:58:41;8.93;;;2.90;;
15712;SDS011;7957;51.608;6.916;2022-11-03T01:01:13;7.97;;;2.80;;
15712;SDS011;7957;51.608;6.916;2022-11-03T01:03:42;9.20;;;3.10;;
15712;SDS011;7957;51.608;6.916;2022-11-03T01:06:31;8.07;;;2.90;;
15712;SDS011;7957;51.608;6.916;2022-11-03T01:09:16;10.67;;;3.37;;
15712;SDS011;7957;51.608;6.916;2022-11-03T01:11:48;7.50;;;3.30;;
15712;SDS011;7957;51.608;6.916;2022-11-03T01:14:18;10.07;;;3.00;;
15712;SDS011;7957;51.608;6.916;2022-11-03T01:16:46;8.23;;;3.30;;
15712;SDS011;7957;51.608;6.916;2022-11-03T01:19:13;9.20;;;3.20;;
15712;SDS011;7957;51.608;6.916;2022-11-03T01:21:42;5.33;;;2.53;;
15712;SDS011;7957;51.608;6.916;2022-11-03T01:24:09;7.60;;;2.83;;
15712;SDS011;7957;51.608;6.916;2022-11-03T01:26:39;7.13;;;2.73;;
15712;SDS011;7957;51.608;6.916;2022-11-03T01:29:06;5.93;;;2.87;;
15712;SDS011;7957;51.608;6.916;2022-11-03T01:31:33;9.70;;;3.27;;
15712;SDS011;7957;51.608;6.916;2022-11-03T01:34:01;7.00;;;2.77;;
15712;SDS011;7957;51.608;6.916;2022-11-03T01:36:28;7.97;;;3.10;;
15712;SDS011;7957;51.608;6.916;2022-11-03T01:38:55;6.57;;;2.67;;
15712;SDS011;7957;51.608;6.916;2022-11-03T01:41:26;6.33;;;3.10;;
15712;SDS011;7957;51.608;6.916;2022-11-03T01:46:52;7.03;;;2.87;;
15712;SDS011;7957;51.608;6.916;2022-11-03T01:49:23;5.70;;;2.37;;
15712;SDS011;7957;51.608;6.916;2022-11-03T01:51:56;7.73;;;2.80;;
15712;SDS011;7957;51.608;6.916;2022-11-03T01:54:27;7.20;;;3.10;;
15712;SDS011;7957;51.608;6.916;2022-11-03T01:56:55;7.60;;;3.10;;
15712;SDS011;7957;51.608;6.916;2022-11-03T01:59:23;8.23;;;3.20;;
15712;SDS011;7957;51.608;6.916;2022-11-03T02:01:51;11.60;;;3.60;;
15712;SDS011;7957;51.608;6.916;2022-11-03T02:04:19;8.93;;;3.10;;
15712;SDS011;7957;51.608;6.916;2022-11-03T02:06:53;9.93;;;3.20;;
15712;SDS011;7957;51.608;6.916;2022-11-03T02:09:30;9.87;;;3.40;;
15712;SDS011;7957;51.608;6.916;2022-11-03T02:11:57;8.63;;;2.90;;
15712;SDS011;7957;51.608;6.916;2022-11-03T02:14:33;11.43;;;3.50;;
15712;SDS011;7957;51.608;6.916;2022-11-03T02:17:04;8.60;;;3.50;;
15712;SDS011;7957;51.608;6.916;2022-11-03T02:19:36;7.37;;;3.33;;
15712;SDS011;7957;51.608;6.916;2022-11-03T02:22:13;10.27;;;3.57;;
15712;SDS011;7957;51.608;6.916;2022-11-03T02:24:55;8.53;;;3.43;;
15712;SDS011;7957;51.608;6.916;2022-11-03T02:27:31;9.13;;;3.40;;
15712;SDS011;7957;51.608;6.916;2022-11-03T02:30:01;7.00;;;3.07;;
15712;SDS011;7957;51.608;6.916;2022-11-03T02:32:28;7.93;;;3.20;;
15712;SDS011;7957;51.608;6.916;2022-11-03T02:35:04;9.33;;;3.10;;
15712;SDS011;7957;51.608;6.916;2022-11-03T02:37:39;7.77;;;3.00;;
15712;SDS011;7957;51.608;6.916;2022-11-03T02:40:11;8.20;;;3.03;;
15712;SDS011;7957;51.608;6.916;2022-11-03T02:42:43;8.40;;;3.30;;
15712;SDS011;7957;51.608;6.916;2022-11-03T02:45:14;6.73;;;3.23;;
15712;SDS011;7957;51.608;6.916;2022-11-03T02:47:46;8.90;;;3.13;;
15712;SDS011;7957;51.608;6.916;2022-11-03T02:50:16;7.60;;;2.87;;
15712;SDS011;7957;51.608;6.916;2022-11-03T02:52:44;8.37;;;3.00;;
15712;SDS011;7957;51.608;6.916;2022-11-03T02:55:14;10.40;;;3.57;;
15712;SDS011;7957;51.608;6.916;2022-11-03T02:57:48;8.13;;;3.30;;
15712;SDS011;7957;51.608;6.916;2022-11-03T03:00:23;8.87;;;3.33;;
15712;SDS011;7957;51.608;6.916;2022-11-03T03:02:56;9.03;;;3.23;;
15712;SDS011;7957;51.608;6.916;2022-11-03T03:05:28;8.77;;;3.27;;
15712;SDS011;7957;51.608;6.916;2022-11-03T03:08:00;7.97;;;3.80;;
15712;SDS011;7957;51.608;6.916;2022-11-03T03:10:32;7.50;;;2.97;;
15712;SDS011;7957;51.608;6.916;2022-11-03T03:13:04;9.87;;;3.50;;
15712;SDS011;7957;51.608;6.916;2022-11-03T03:15:35;9.67;;;3.20;;
15712;SDS011;7957;51.608;6.916;2022-11-03T03:18:15;13.13;;;3.30;;
15712;SDS011;7957;51.608;6.916;2022-11-03T03:20:49;7.33;;;3.27;;
15712;SDS011;7957;51.608;6.916;2022-11-03T03:23:20;9.43;;;3.10;;
15712;SDS011;7957;51.608;6.916;2022-11-03T03:25:49;7.83;;;3.07;;
15712;SDS011;7957;51.608;6.916;2022-11-03T03:28:31;8.67;;;3.70;;
15712;SDS011;7957;51.608;6.916;2022-11-03T03:31:02;6.33;;;3.23;;
15712;SDS011;7957;51.608;6.916;2022-11-03T03:33:35;7.53;;;3.30;;
15712;SDS011;7957;51.608;6.916;2022-11-03T03:36:04;10.53;;;4.00;;
15712;SDS011;7957;51.608;6.916;2022-11-03T03:38:37;10.63;;;3.90;;
15712;SDS011;7957;51.608;6.916;2022-11-03T03:41:08;8.97;;;3.17;;
15712;SDS011;7957;51.608;6.916;2022-11-03T03:43:47;7.27;;;3.53;;
15712;SDS011;7957;51.608;6.916;2022-11-03T03:46:16;6.57;;;3.37;;
15712;SDS011;7957;51.608;6.916;2022-11-03T03:48:45;6.87;;;3.00;;
15712;SDS011;7957;51.608;6.916;2022-11-03T03:51:12;6.77;;;3.10;;
15712;SDS011;7957;51.608;6.916;2022-11-03T03:53:43;6.97;;;2.80;;
15712;SDS011;7957;51.608;6.916;2022-11-03T03:56:14;8.67;;;3.10;;
15712;SDS011;7957;51.608;6.916;2022-11-03T03:58:43;8.93;;;3.57;;
15712;SDS011;7957;51.608;6.916;2022-11-03T04:01:12;9.83;;;3.53;;
15712;SDS011;7957;51.608;6.916;2022-11-03T04:03:38;7.53;;;3.30;;
15712;SDS011;7957;51.608;6.916;2022-11-03T04:06:06;9.87;;;3.90;;
15712;SDS011;7957;51.608;6.916;2022-11-03T04:08:35;9.10;;;3.37;;
15712;SDS011;7957;51.608;6.916;2022-11-03T04:11:02;8.17;;;3.27;;
15712;SDS011;7957;51.608;6.916;2022-11-03T04:13:46;5.60;;;3.17;;
15712;SDS011;7957;51.608;6.916;2022-11-03T04:16:28;7.03;;;3.10;;
15712;SDS011;7957;51.608;6.916;2022-11-03T04:19:13;6.53;;;3.13;;
15712;SDS011;7957;51.608;6.916;2022-11-03T04:21:58;7.47;;;3.43;;
15712;SDS011;7957;51.608;6.916;2022-11-03T04:24:42;6.53;;;3.03;;
15712;SDS011;7957;51.608;6.916;2022-11-03T04:30:12;9.80;;;3.47;;
15712;SDS011;7957;51.608;6.916;2022-11-03T04:32:42;9.27;;;3.83;;
15712;SDS011;7957;51.608;6.916;2022-11-03T04:35:13;7.80;;;3.30;;
15712;SDS011;7957;51.608;6.916;2022-11-03T04:37:42;9.00;;;2.97;;
15712;SDS011;7957;51.608;6.916;2022-11-03T04:40:12;8.80;;;3.07;;
15712;SDS011;7957;51.608;6.916;2022-11-03T04:42:43;6.43;;;3.53;;
15712;SDS011;7957;51.608;6.916;2022-11-03T04:45:13;7.53;;;3.30;;
15712;SDS011;7957;51.608;6.916;2022-11-03T04:47:48;6.53;;;3.20;;
15712;SDS011;7957;51.608;6.916;2022-11-03T04:50:17;9.87;;;3.30;;
15712;SDS011;7957;51.608;6.916;2022-11-03T04:52:50;7.90;;;2.93;;
15712;SDS011;7957;51.608;6.916;2022-11-03T04:55:20;8.70;;;3.47;;
15712;SDS011;7957;51.608;6.916;2022-11-03T04:57:47;8.00;;;3.40;;
15712;SDS011;7957;51.608;6.916;2022-11-03T05:00:16;7.63;;;3.20;;
15712;SDS011;7957;51.608;6.916;2022-11-03T05:02:44;6.63;;;3.23;;
15712;SDS011;7957;51.608;6.916;2022-11-03T05:05:19;7.20;;;3.23;;
15712;SDS011;7957;51.608;6.916;2022-11-03T05:07:47;7.47;;;3.20;;
15712;SDS011;7957;51.608;6.916;2022-11-03T05:10:17;8.23;;;3.10;;
15712;SDS011;7957;51.608;6.916;2022-11-03T05:12:49;7.13;;;3.07;;
15712;SDS011;7957;51.608;6.916;2022-11-03T05:15:27;7.73;;;3.17;;
15712;SDS011;7957;51.608;6.916;2022-11-03T05:17:57;6.07;;;3.10;;
15712;SDS011;7957;51.608;6.916;2022-11-03T05:20:31;7.50;;;3.00;;
15712;SDS011;7957;51.608;6.916;2022-11-03T05:23:01;8.80;;;3.73;;
15712;SDS011;7957;51.608;6.916;2022-11-03T05:25:34;7.90;;;3.47;;
15712;SDS011;7957;51.608;6.916;2022-11-03T05:28:18;8.93;;;3.40;;
15712;SDS011;7957;51.608;6.916;2022-11-03T05:30:52;8.03;;;3.10;;
15712;SDS011;7957;51.608;6.916;2022-11-03T05:33:20;9.87;;;3.73;;
15712;SDS011;7957;51.608;6.916;2022-11-03T05:35:53;7.83;;;3.37;;
15712;SDS011;7957;51.608;6.916;2022-11-03T05:38:20;7.50;;;3.30;;
15712;SDS011;7957;51.608;6.916;2022-11-03T05:40:50;9.27;;;3.33;;
15712;SDS011;7957;51.608;6.916;2022-11-03T05:43:19;7.50;;;3.20;;
15712;SDS011;7957;51.608;6.916;2022-11-03T05:45:46;8.40;;;3.50;;
15712;SDS011;7957;51.608;6.916;2022-11-03T05:48:17;10.43;;;3.37;;
15712;SDS011;7957;51.608;6.916;2022-11-03T05:50:47;8.80;;;3.43;;
15712;SDS011;7957;51.608;6.916;2022-11-03T05:53:26;7.30;;;3.23;;
15712;SDS011;7957;51.608;6.916;2022-11-03T05:55:57;6.87;;;3.40;;
15712;SDS011;7957;51.608;6.916;2022-11-03T05:58:28;11.40;;;3.30;;
15712;SDS011;7957;51.608;6.916;2022-11-03T06:00:57;7.13;;;3.13;;
15712;SDS011;7957;51.608;6.916;2022-11-03T06:03:27;8.00;;;3.10;;
15712;SDS011;7957;51.608;6.916;2022-11-03T06:05:57;6.27;;;3.00;;
15712;SDS011;7957;51.608;6.916;2022-11-03T06:08:29;6.83;;;3.30;;
15712;SDS011;7957;51.608;6.916;2022-11-03T06:10:59;10.67;;;3.97;;
15712;SDS011;7957;51.608;6.916;2022-11-03T06:13:29;8.50;;;3.40;;
15712;SDS011;7957;51.608;6.916;2022-11-03T06:15:58;7.77;;;3.30;;
15712;SDS011;7957;51.608;6.916;2022-11-03T06:18:32;8.03;;;3.37;;
15712;SDS011;7957;51.608;6.916;2022-11-03T06:21:04;6.70;;;3.13;;
15712;SDS011;7957;51.608;6.916;2022-11-03T06:23:34;7.70;;;3.47;;
15712;SDS011;7957;51.608;6.916;2022-11-03T06:26:07;8.87;;;3.67;;
15712;SDS011;7957;51.608;6.916;2022-11-03T06:28:40;6.87;;;3.50;;
15712;SDS011;7957;51.608;6.916;2022-11-03T06:31:11;6.97;;;3.20;;
15712;SDS011;7957;51.608;6.916;2022-11-03T06:33:46;7.23;;;3.07;;
15712;SDS011;7957;51.608;6.916;2022-11-03T06:36:15;10.30;;;3.50;;
15712;SDS011;7957;51.608;6.916;2022-11-03T06:38:47;7.60;;;3.30;;
15712;SDS011;7957;51.608;6.916;2022-11-03T06:41:17;7.77;;;3.30;;
15712;SDS011;7957;51.608;6.916;2022-11-03T06:43:49;9.73;;;4.03;;
15712;SDS011;7957;51.608;6.916;2022-11-03T06:46:18;9.20;;;3.40;;
15712;SDS011;7957;51.608;6.916;2022-11-03T06:48:46;9.43;;;3.40;;
15712;SDS011;7957;51.608;6.916;2022-11-03T06:51:14;7.63;;;3.80;;
15712;SDS011;7957;51.608;6.916;2022-11-03T06:53:43;7.93;;;3.40;;
15712;SDS011;7957;51.608;6.916;2022-11-03T06:56:13;7.87;;;3.40;;
15712;SDS011;7957;51.608;6.916;2022-11-03T06:58:44;8.23;;;3.30;;
15712;SDS011;7957;51.608;6.916;2022-11-03T07:01:14;6.20;;;3.17;;
15712;SDS011;7957;51.608;6.916;2022-11-03T07:03:42;6.57;;;3.30;;
15712;SDS011;7957;51.608;6.916;2022-11-03T07:06:14;8.87;;;3.57;;
15712;SDS011;7957;51.608;6.916;2022-11-03T07:08:47;9.67;;;3.20;;
15712;SDS011;7957;51.608;6.916;2022-11-03T07:11:17;7.77;;;3.23;;
15712;SDS011;7957;51.608;6.916;2022-11-03T07:13:45;11.00;;;3.63;;
15712;SDS011;7957;51.608;6.916;2022-11-03T07:16:16;7.67;;;3.60;;
15712;SDS011;7957;51.608;6.916;2022-11-03T07:18:48;10.23;;;3.40;;
15712;SDS011;7957;51.608;6.916;2022-11-03T07:21:27;9.77;;;3.70;;
15712;SDS011;7957;51.608;6.916;2022-11-03T07:24:00;5.70;;;3.17;;
15712;SDS011;7957;51.608;6.916;2022-11-03T07:26:32;7.70;;;3.20;;
15712;SDS011;7957;51.608;6.916;2022-11-03T07:28:59;6.37;;;3.00;;
15712;SDS011;7957;51.608;6.916;2022-11-03T07:31:26;9.00;;;3.67;;
15712;SDS011;7957;51.608;6.916;2022-11-03T07:33:54;8.57;;;3.33;;
15712;SDS011;7957;51.608;6.916;2022-11-03T07:36:23;9.90;;;3.30;;
15712;SDS011;7957;51.608;6.916;2022-11-03T07:38:53;7.27;;;3.57;;
15712;SDS011;7957;51.608;6.916;2022-11-03T07:41:24;12.43;;;3.73;;
15712;SDS011;7957;51.608;6.916;2022-11-03T07:43:54;8.77;;;3.30;;
15712;SDS011;7957;51.608;6.916;2022-11-03T07:46:22;10.33;;;3.73;;
15712;SDS011;7957;51.608;6.916;2022-11-03T07:48:51;7.00;;;3.30;;
15712;SDS011;7957;51.608;6.916;2022-11-03T07:51:21;9.17;;;3.23;;
15712;SDS011;7957;51.608;6.916;2022-11-03T07:53:50;7.13;;;3.03;;
15712;SDS011;7957;51.608;6.916;2022-11-03T07:56:19;9.43;;;3.40;;
15712;SDS011;7957;51.608;6.916;2022-11-03T07:58:49;12.33;;;4.40;;
15712;SDS011;7957;51.608;6.916;2022-11-03T08:01:21;11.30;;;3.80;;
15712;SDS011;7957;51.608;6.916;2022-11-03T08:03:54;9.03;;;3.23;;
15712;SDS011;7957;51.608;6.916;2022-11-03T08:06:28;5.83;;;2.90;;
15712;SDS011;7957;51.608;6.916;2022-11-03T08:08:54;6.67;;;3.00;;
15712;SDS011;7957;51.608;6.916;2022-11-03T08:11:21;12.43;;;3.73;;
15712;SDS011;7957;51.608;6.916;2022-11-03T08:13:50;6.77;;;3.00;;
15712;SDS011;7957;51.608;6.916;2022-11-03T08:16:20;9.07;;;3.50;;
15712;SDS011;7957;51.608;6.916;2022-11-03T08:18:47;8.67;;;3.40;;
15712;SDS011;7957;51.608;6.916;2022-11-03T08:21:15;7.03;;;3.27;;
15712;SDS011;7957;51.608;6.916;2022-11-03T08:23:42;11.07;;;3.80;;
15712;SDS011;7957;51.608;6.916;2022-11-03T08:26:09;9.27;;;3.30;;
15712;SDS011;7957;51.608;6.916;2022-11-03T08:28:36;7.97;;;2.90;;
15712;SDS011;7957;51.608;6.916;2022-11-03T08:31:04;8.73;;;3.57;;
15712;SDS011;7957;51.608;6.916;2022-11-03T08:33:31;6.97;;;3.20;;
15712;SDS011;7957;51.608;6.916;2022-11-03T08:36:00;7.00;;;3.47;;
15712;SDS011;7957;51.608;6.916;2022-11-03T08:38:28;7.50;;;3.30;;
15712;SDS011;7957;51.608;6.916;2022-11-03T08:40:55;8.03;;;3.10;;
15712;SDS011;7957;51.608;6.916;2022-11-03T08:43:23;6.90;;;2.90;;
15712;SDS011;7957;51.608;6.916;2022-11-03T08:45:50;7.67;;;3.03;;
15712;SDS011;7957;51.608;6.916;2022-11-03T08:48:19;10.73;;;3.30;;
15712;SDS011;7957;51.608;6.916;2022-11-03T08:50:47;5.93;;;3.23;;
15712;SDS011;7957;51.608;6.916;2022-11-03T08:53:18;7.80;;;3.40;;
15712;SDS011;7957;51.608;6.916;2022-11-03T08:55:45;10.43;;;3.50;;
15712;SDS011;7957;51.608;6.916;2022-11-03T08:58:12;8.23;;;3.10;;
15712;SDS011;7957;51.608;6.916;2022-11-03T09:00:38;10.43;;;3.60;;
15712;SDS011;7957;51.608;6.916;2022-11-03T09:03:05;7.93;;;3.47;;
15712;SDS011;7957;51.608;6.916;2022-11-03T09:05:34;7.00;;;3.03;;
15712;SDS011;7957;51.608;6.916;2022-11-03T09:08:01;9.53;;;3.60;;
15712;SDS011;7957;51.608;6.916;2022-11-03T09:10:28;8.70;;;3.60;;
15712;SDS011;7957;51.608;6.916;2022-11-03T09:12:56;7.20;;;3.10;;
15712;SDS011;7957;51.608;6.916;2022-11-03T09:15:23;7.53;;;3.47;;
15712;SDS011;7957;51.608;6.916;2022-11-03T09:17:50;5.83;;;3.10;;
15712;SDS011;7957;51.608;6.916;2022-11-03T09:20:17;9.00;;;3.50;;
15712;SDS011;7957;51.608;6.916;2022-11-03T09:22:46;8.30;;;3.53;;
15712;SDS011;7957;51.608;6.916;2022-11-03T09:25:13;7.27;;;3.33;;
15712;SDS011;7957;51.608;6.916;2022-11-03T09:27:40;9.13;;;3.40;;
15712;SDS011;7957;51.608;6.916;2022-11-03T09:30:07;6.83;;;3.23;;
15712;SDS011;7957;51.608;6.916;2022-11-03T09:32:36;9.20;;;3.40;;
15712;SDS011;7957;51.608;6.916;2022-11-03T09:35:04;6.70;;;3.13;;
15712;SDS011;7957;51.608;6.916;2022-11-03T09:37:32;7.13;;;3.27;;
15712;SDS011;7957;51.608;6.916;2022-11-03T09:40:00;7.37;;;3.33;;
15712;SDS011;7957;51.608;6.916;2022-11-03T09:42:28;8.33;;;3.13;;
15712;SDS011;7957;51.608;6.916;2022-11-03T09:44:58;11.97;;;3.80;;
15712;SDS011;7957;51.608;6.916;2022-11-03T09:47:26;9.07;;;3.13;;
15712;SDS011;7957;51.608;6.916;2022-11-03T09:49:57;8.33;;;3.37;;
15712;SDS011;7957;51.608;6.916;2022-11-03T09:52:25;9.43;;;3.27;;
15712;SDS011;7957;51.608;6.916;2022-11-03T09:54:52;7.37;;;3.10;;
15712;SDS011;7957;51.608;6.916;2022-11-03T09:57:22;10.00;;;3.80;;
15712;SDS011;7957;51.608;6.916;2022-11-03T09:59:51;7.03;;;3.10;;
15712;SDS011;7957;51.608;6.916;2022-11-03T10:02:19;7.37;;;3.20;;
15712;SDS011;7957;51.608;6.916;2022-11-03T10:04:50;9.00;;;3.87;;
15712;SDS011;7957;51.608;6.916;2022-11-03T10:07:18;6.33;;;3.20;;
15712;SDS011;7957;51.608;6.916;2022-11-03T10:09:47;8.07;;;3.17;;
15712;SDS011;7957;51.608;6.916;2022-11-03T10:12:16;7.10;;;3.20;;
15712;SDS011;7957;51.608;6.916;2022-11-03T10:14:45;8.67;;;3.13;;
15712;SDS011;7957;51.608;6.916;2022-11-03T10:17:14;6.67;;;3.10;;
15712;SDS011;7957;51.608;6.916;2022-11-03T10:19:44;8.23;;;3.30;;
15712;SDS011;7957;51.608;6.916;2022-11-03T10:22:14;7.27;;;3.00;;
15712;SDS011;7957;51.608;6.916;2022-11-03T10:24:41;7.33;;;3.33;;
15712;SDS011;7957;51.608;6.916;2022-11-03T10:27:18;6.20;;;3.27;;
15712;SDS011;7957;51.608;6.916;2022-11-03T10:32:46;6.23;;;2.90;;
15712;SDS011;7957;51.608;6.916;2022-11-03T10:38:19;8.10;;;3.13;;
15712;SDS011;7957;51.608;6.916;2022-11-03T10:40:51;7.90;;;3.00;;
15712;SDS011;7957;51.608;6.916;2022-11-03T10:43:18;7.40;;;3.03;;
15712;SDS011;7957;51.608;6.916;2022-11-03T10:45:45;9.07;;;3.00;;
15712;SDS011;7957;51.608;6.916;2022-11-03T10:48:15;5.00;;;2.80;;
15712;SDS011;7957;51.608;6.916;2022-11-03T10:50:42;7.83;;;3.37;;
15712;SDS011;7957;51.608;6.916;2022-11-03T10:53:12;7.80;;;2.87;;
15712;SDS011;7957;51.608;6.916;2022-11-03T10:55:42;6.57;;;2.80;;
15712;SDS011;7957;51.608;6.916;2022-11-03T10:58:09;6.73;;;2.90;;
15712;SDS011;7957;51.608;6.916;2022-11-03T11:00:36;8.67;;;2.90;;
15712;SDS011;7957;51.608;6.916;2022-11-03T11:03:06;7.30;;;2.90;;
15712;SDS011;7957;51.608;6.916;2022-11-03T11:05:34;4.93;;;2.43;;
15712;SDS011;7957;51.608;6.916;2022-11-03T11:08:01;5.23;;;2.67;;
15712;SDS011;7957;51.608;6.916;2022-11-03T11:10:28;6.97;;;3.40;;
15712;SDS011;7957;51.608;6.916;2022-11-03T11:13:03;6.60;;;2.77;;
15712;SDS011;7957;51.608;6.916;2022-11-03T11:15:35;7.17;;;2.90;;
15712;SDS011;7957;51.608;6.916;2022-11-03T11:18:04;6.63;;;2.90;;
15712;SDS011;7957;51.608;6.916;2022-11-03T11:20:33;7.83;;;3.10;;
15712;SDS011;7957;51.608;6.916;2022-11-03T11:26:12;7.23;;;2.73;;
15712;SDS011;7957;51.608;6.916;2022-11-03T11:28:42;6.77;;;3.00;;
15712;SDS011;7957;51.608;6.916;2022-11-03T11:31:26;6.47;;;2.77;;
15712;SDS011;7957;51.608;6.916;2022-11-03T11:40:01;6.80;;;2.50;;
15712;SDS011;7957;51.608;6.916;2022-11-03T11:42:39;5.50;;;2.47;;
15712;SDS011;7957;51.608;6.916;2022-11-03T11:48:47;4.50;;;2.30;;
15712;SDS011;7957;51.608;6.916;2022-11-03T11:51:15;6.20;;;2.50;;
15712;SDS011;7957;51.608;6.916;2022-11-03T11:53:44;6.03;;;2.37;;
15712;SDS011;7957;51.608;6.916;2022-11-03T11:56:13;14.27;;;3.20;;
15712;SDS011;7957;51.608;6.916;2022-11-03T11:58:42;5.67;;;2.37;;
15712;SDS011;7957;51.608;6.916;2022-11-03T12:03:57;7.30;;;2.47;;
15712;SDS011;7957;51.608;6.916;2022-11-03T12:06:33;5.77;;;2.40;;
15712;SDS011;7957;51.608;6.916;2022-11-03T12:09:06;5.73;;;2.63;;
15712;SDS011;7957;51.608;6.916;2022-11-03T12:11:40;5.33;;;2.37;;
15712;SDS011;7957;51.608;6.916;2022-11-03T12:14:20;5.73;;;2.37;;
15712;SDS011;7957;51.608;6.916;2022-11-03T12:16:47;6.73;;;2.20;;
15712;SDS011;7957;51.608;6.916;2022-11-03T12:19:36;5.67;;;2.10;;
15712;SDS011;7957;51.608;6.916;2022-11-03T12:22:05;5.87;;;2.37;;
15712;SDS011;7957;51.608;6.916;2022-11-03T12:24:36;4.40;;;2.20;;
15712;SDS011;7957;51.608;6.916;2022-11-03T12:27:18;4.20;;;2.23;;
15712;SDS011;7957;51.608;6.916;2022-11-03T12:30:07;6.23;;;2.37;;
15712;SDS011;7957;51.608;6.916;2022-11-03T12:32:38;5.20;;;2.40;;
15712;SDS011;7957;51.608;6.916;2022-11-03T12:35:06;7.00;;;2.20;;
15712;SDS011;7957;51.608;6.916;2022-11-03T12:37:35;7.33;;;2.47;;
15712;SDS011;7957;51.608;6.916;2022-11-03T12:40:04;4.63;;;2.10;;
15712;SDS011;7957;51.608;6.916;2022-11-03T12:42:32;6.53;;;2.40;;
15712;SDS011;7957;51.608;6.916;2022-11-03T12:44:59;11.13;;;2.60;;
15712;SDS011;7957;51.608;6.916;2022-11-03T12:47:26;5.83;;;2.20;;
15712;SDS011;7957;51.608;6.916;2022-11-03T12:49:53;7.60;;;2.50;;
15712;SDS011;7957;51.608;6.916;2022-11-03T12:52:20;4.47;;;2.23;;
15712;SDS011;7957;51.608;6.916;2022-11-03T12:54:47;4.27;;;2.10;;
15712;SDS011;7957;51.608;6.916;2022-11-03T12:57:15;6.40;;;2.13;;
15712;SDS011;7957;51.608;6.916;2022-11-03T12:59:42;4.17;;;2.07;;
15712;SDS011;7957;51.608;6.916;2022-11-03T13:02:12;3.50;;;2.10;;
15712;SDS011;7957;51.608;6.916;2022-11-03T13:04:39;6.10;;;2.10;;
15712;SDS011;7957;51.608;6.916;2022-11-03T13:07:06;5.57;;;2.30;;
15712;SDS011;7957;51.608;6.916;2022-11-03T13:09:33;6.40;;;2.40;;
15712;SDS011;7957;51.608;6.916;2022-11-03T13:12:02;9.63;;;2.53;;
15712;SDS011;7957;51.608;6.916;2022-11-03T13:14:51;5.97;;;2.20;;
15712;SDS011;7957;51.608;6.916;2022-11-03T13:17:18;7.27;;;2.47;;
15712;SDS011;7957;51.608;6.916;2022-11-03T13:19:45;7.20;;;2.40;;
15712;SDS011;7957;51.608;6.916;2022-11-03T13:22:15;4.90;;;2.13;;
15712;SDS011;7957;51.608;6.916;2022-11-03T13:24:42;7.03;;;2.60;;
15712;SDS011;7957;51.608;6.916;2022-11-03T13:27:09;6.07;;;2.53;;
15712;SDS011;7957;51.608;6.916;2022-11-03T13:29:35;6.53;;;2.50;;
15712;SDS011;7957;51.608;6.916;2022-11-03T13:32:05;6.43;;;2.67;;
15712;SDS011;7957;51.608;6.916;2022-11-03T13:34:32;4.80;;;2.40;;
15712;SDS011;7957;51.608;6.916;2022-11-03T13:36:59;4.83;;;2.57;;
15712;SDS011;7957;51.608;6.916;2022-11-03T13:39:26;5.37;;;2.43;;
15712;SDS011;7957;51.608;6.916;2022-11-03T13:41:54;5.03;;;2.13;;
15712;SDS011;7957;51.608;6.916;2022-11-03T13:44:21;4.70;;;2.40;;
15712;SDS011;7957;51.608;6.916;2022-11-03T13:46:50;6.07;;;2.60;;
15712;SDS011;7957;51.608;6.916;2022-11-03T13:49:23;4.57;;;2.27;;
15712;SDS011;7957;51.608;6.916;2022-11-03T13:51:51;4.53;;;2.00;;
15712;SDS011;7957;51.608;6.916;2022-11-03T13:54:17;6.33;;;2.20;;
15712;SDS011;7957;51.608;6.916;2022-11-03T13:56:44;4.90;;;2.53;;
15712;SDS011;7957;51.608;6.916;2022-11-03T13:59:12;4.30;;;2.53;;
15712;SDS011;7957;51.608;6.916;2022-11-03T14:01:38;7.47;;;2.50;;
15712;SDS011;7957;51.608;6.916;2022-11-03T14:04:05;7.37;;;2.47;;
15712;SDS011;7957;51.608;6.916;2022-11-03T14:06:34;3.23;;;2.20;;
15712;SDS011;7957;51.608;6.916;2022-11-03T14:09:01;5.63;;;2.60;;
15712;SDS011;7957;51.608;6.916;2022-11-03T14:11:27;7.43;;;2.53;;
15712;SDS011;7957;51.608;6.916;2022-11-03T14:14:12;8.57;;;2.33;;
15712;SDS011;7957;51.608;6.916;2022-11-03T14:16:39;5.23;;;2.17;;
15712;SDS011;7957;51.608;6.916;2022-11-03T14:19:06;3.97;;;2.10;;
15712;SDS011;7957;51.608;6.916;2022-11-03T14:21:34;6.20;;;2.40;;
15712;SDS011;7957;51.608;6.916;2022-11-03T14:24:04;4.87;;;2.60;;
15712;SDS011;7957;51.608;6.916;2022-11-03T14:26:34;6.17;;;2.60;;
15712;SDS011;7957;51.608;6.916;2022-11-03T14:29:01;5.13;;;2.40;;
15712;SDS011;7957;51.608;6.916;2022-11-03T14:31:30;5.50;;;2.43;;
15712;SDS011;7957;51.608;6.916;2022-11-03T14:33:57;3.97;;;2.30;;
15712;SDS011;7957;51.608;6.916;2022-11-03T14:36:24;6.00;;;2.20;;
15712;SDS011;7957;51.608;6.916;2022-11-03T14:38:53;4.13;;;2.40;;
15712;SDS011;7957;51.608;6.916;2022-11-03T14:41:20;7.00;;;2.83;;
15712;SDS011;7957;51.608;6.916;2022-11-03T14:44:04;5.37;;;2.50;;
15712;SDS011;7957;51.608;6.916;2022-11-03T14:46:31;5.20;;;2.70;;
15712;SDS011;7957;51.608;6.916;2022-11-03T14:48:58;6.80;;;2.80;;
15712;SDS011;7957;51.608;6.916;2022-11-03T14:51:26;5.17;;;2.57;;
15712;SDS011;7957;51.608;6.916;2022-11-03T14:53:54;6.87;;;2.97;;
15712;SDS011;7957;51.608;6.916;2022-11-03T14:56:22;6.10;;;2.87;;
15712;SDS011;7957;51.608;6.916;2022-11-03T14:58:50;6.13;;;2.90;;
15712;SDS011;7957;51.608;6.916;2022-11-03T15:01:17;5.30;;;2.80;;
15712;SDS011;7957;51.608;6.916;2022-11-03T15:03:45;3.63;;;2.57;;
15712;SDS011;7957;51.608;6.916;2022-11-03T15:06:12;6.27;;;2.80;;
15712;SDS011;7957;51.608;6.916;2022-11-03T15:08:39;5.53;;;2.77;;
15712;SDS011;7957;51.608;6.916;2022-11-03T15:11:07;10.70;;;2.70;;
15712;SDS011;7957;51.608;6.916;2022-11-03T15:13:34;9.17;;;2.70;;
15712;SDS011;7957;51.608;6.916;2022-11-03T15:16:02;5.77;;;2.60;;
15712;SDS011;7957;51.608;6.916;2022-11-03T15:18:30;5.10;;;2.60;;
15712;SDS011;7957;51.608;6.916;2022-11-03T15:20:57;4.83;;;2.87;;
15712;SDS011;7957;51.608;6.916;2022-11-03T15:23:24;6.63;;;2.80;;
15712;SDS011;7957;51.608;6.916;2022-11-03T15:25:52;5.33;;;2.93;;
15712;SDS011;7957;51.608;6.916;2022-11-03T15:28:21;4.23;;;2.63;;
15712;SDS011;7957;51.608;6.916;2022-11-03T15:30:47;5.73;;;3.10;;
15712;SDS011;7957;51.608;6.916;2022-11-03T15:33:14;5.23;;;2.97;;
15712;SDS011;7957;51.608;6.916;2022-11-03T15:35:41;4.90;;;2.70;;
15712;SDS011;7957;51.608;6.916;2022-11-03T15:38:08;5.03;;;2.53;;
15712;SDS011;7957;51.608;6.916;2022-11-03T15:40:35;6.70;;;2.60;;
15712;SDS011;7957;51.608;6.916;2022-11-03T15:43:02;6.20;;;2.90;;
15712;SDS011;7957;51.608;6.916;2022-11-03T15:45:32;6.13;;;2.60;;